sensor_id;sensor_type;location;lat;lon;timestamp;P1;durP1;ratioP1;P2;durP2;ratioP2
12445;SDS011;6287;50.984;7.022;2023-03-19T00:00:30;4.10;;;2.40;;
12445;SDS011;6287;50.984;7.022;2023-03-19T00:02:58;2.87;;;2.10;;
12445;SDS011;6287;50.984;7.022;2023-03-19T00:05:24;3.10;;;2.43;;
12445;SDS011;6287;50.984;7.022;2023-03-19T00:07:52;4.50;;;2.50;;
12445;SDS011;6287;50.984;7.022;2023-03-19T00:10:22;4.10;;;2.07;;
12445;SDS011;6287;50.984;7.022;2023-03-19T00:12:50;5.17;;;2.63;;
12445;SDS011;6287;50.984;7.022;2023-03-19T00:15:23;4.93;;;2.60;;
12445;SDS011;6287;50.984;7.022;2023-03-19T00:17:51;6.10;;;2.93;;
12445;SDS011;6287;50.984;7.022;2023-03-19T00:20:16;5.40;;;2.73;;
12445;SDS011;6287;50.984;7.022;2023-03-19T00:22:43;5.77;;;2.97;;
12445;SDS011;6287;50.984;7.022;2023-03-19T00:25:09;4.57;;;3.13;;
12445;SDS011;6287;50.984;7.022;2023-03-19T00:27:35;4.50;;;2.87;;
12445;SDS011;6287;50.984;7.022;2023-03-19T00:30:04;4.60;;;2.63;;
12445;SDS011;6287;50.984;7.022;2023-03-19T00:32:33;4.60;;;2.50;;
12445;SDS011;6287;50.984;7.022;2023-03-19T00:35:02;4.63;;;3.00;;
12445;SDS011;6287;50.984;7.022;2023-03-19T00:37:30;4.03;;;2.80;;
12445;SDS011;6287;50.984;7.022;2023-03-19T00:39:57;4.40;;;2.90;;
12445;SDS011;6287;50.984;7.022;2023-03-19T00:42:23;4.47;;;2.60;;
12445;SDS011;6287;50.984;7.022;2023-03-19T00:44:51;3.47;;;2.67;;
12445;SDS011;6287;50.984;7.022;2023-03-19T00:47:17;5.03;;;2.73;;
12445;SDS011;6287;50.984;7.022;2023-03-19T00:49:43;3.30;;;2.50;;
12445;SDS011;6287;50.984;7.022;2023-03-19T00:52:11;2.83;;;2.40;;
12445;SDS011;6287;50.984;7.022;2023-03-19T00:54:36;2.73;;;2.50;;
12445;SDS011;6287;50.984;7.022;2023-03-19T00:57:04;6.40;;;2.73;;
12445;SDS011;6287;50.984;7.022;2023-03-19T00:59:35;3.20;;;2.73;;
12445;SDS011;6287;50.984;7.022;2023-03-19T01:02:03;5.20;;;3.00;;
12445;SDS011;6287;50.984;7.022;2023-03-19T01:04:33;4.83;;;2.67;;
12445;SDS011;6287;50.984;7.022;2023-03-19T01:07:01;2.57;;;2.30;;
12445;SDS011;6287;50.984;7.022;2023-03-19T01:09:31;3.77;;;2.40;;
12445;SDS011;6287;50.984;7.022;2023-03-19T01:11:57;2.90;;;2.37;;
12445;SDS011;6287;50.984;7.022;2023-03-19T01:14:28;3.23;;;2.30;;
12445;SDS011;6287;50.984;7.022;2023-03-19T01:16:54;3.10;;;2.57;;
12445;SDS011;6287;50.984;7.022;2023-03-19T01:19:20;3.37;;;2.30;;
12445;SDS011;6287;50.984;7.022;2023-03-19T01:21:46;3.17;;;2.47;;
12445;SDS011;6287;50.984;7.022;2023-03-19T01:24:17;2.37;;;2.23;;
12445;SDS011;6287;50.984;7.022;2023-03-19T01:26:46;3.40;;;2.43;;
12445;SDS011;6287;50.984;7.022;2023-03-19T01:29:11;3.43;;;2.50;;
12445;SDS011;6287;50.984;7.022;2023-03-19T01:31:40;3.20;;;2.50;;
12445;SDS011;6287;50.984;7.022;2023-03-19T01:34:06;4.17;;;2.63;;
12445;SDS011;6287;50.984;7.022;2023-03-19T01:36:31;4.10;;;2.40;;
12445;SDS011;6287;50.984;7.022;2023-03-19T01:38:57;3.37;;;2.67;;
12445;SDS011;6287;50.984;7.022;2023-03-19T01:41:23;3.97;;;2.83;;
12445;SDS011;6287;50.984;7.022;2023-03-19T01:43:48;3.77;;;2.57;;
12445;SDS011;6287;50.984;7.022;2023-03-19T01:48:53;3.33;;;2.60;;
12445;SDS011;6287;50.984;7.022;2023-03-19T01:51:26;4.23;;;2.30;;
12445;SDS011;6287;50.984;7.022;2023-03-19T01:53:59;2.80;;;2.50;;
12445;SDS011;6287;50.984;7.022;2023-03-19T01:58:57;4.90;;;2.50;;
12445;SDS011;6287;50.984;7.022;2023-03-19T02:01:33;3.37;;;2.30;;
12445;SDS011;6287;50.984;7.022;2023-03-19T02:04:02;3.30;;;2.60;;
12445;SDS011;6287;50.984;7.022;2023-03-19T02:06:29;3.83;;;2.80;;
12445;SDS011;6287;50.984;7.022;2023-03-19T02:08:56;3.27;;;2.43;;
12445;SDS011;6287;50.984;7.022;2023-03-19T02:11:24;2.57;;;2.27;;
12445;SDS011;6287;50.984;7.022;2023-03-19T02:13:50;4.37;;;2.37;;
12445;SDS011;6287;50.984;7.022;2023-03-19T02:16:18;2.23;;;2.03;;
12445;SDS011;6287;50.984;7.022;2023-03-19T02:18:47;6.00;;;2.53;;
12445;SDS011;6287;50.984;7.022;2023-03-19T02:21:16;2.47;;;2.03;;
12445;SDS011;6287;50.984;7.022;2023-03-19T02:24:07;5.97;;;2.50;;
12445;SDS011;6287;50.984;7.022;2023-03-19T02:26:37;2.93;;;2.00;;
12445;SDS011;6287;50.984;7.022;2023-03-19T02:29:05;3.63;;;2.10;;
12445;SDS011;6287;50.984;7.022;2023-03-19T02:31:31;3.23;;;2.17;;
12445;SDS011;6287;50.984;7.022;2023-03-19T02:34:04;5.10;;;2.17;;
12445;SDS011;6287;50.984;7.022;2023-03-19T02:36:53;2.30;;;2.10;;
12445;SDS011;6287;50.984;7.022;2023-03-19T02:39:32;2.60;;;2.00;;
12445;SDS011;6287;50.984;7.022;2023-03-19T02:42:03;2.00;;;1.80;;
12445;SDS011;6287;50.984;7.022;2023-03-19T02:44:35;2.27;;;2.00;;
12445;SDS011;6287;50.984;7.022;2023-03-19T02:47:02;1.93;;;1.83;;
12445;SDS011;6287;50.984;7.022;2023-03-19T02:49:33;1.97;;;1.73;;
12445;SDS011;6287;50.984;7.022;2023-03-19T02:52:00;2.33;;;1.60;;
12445;SDS011;6287;50.984;7.022;2023-03-19T02:54:25;3.40;;;2.07;;
12445;SDS011;6287;50.984;7.022;2023-03-19T02:56:54;2.27;;;2.07;;
12445;SDS011;6287;50.984;7.022;2023-03-19T02:59:22;2.27;;;2.07;;
12445;SDS011;6287;50.984;7.022;2023-03-19T03:01:52;2.80;;;2.00;;
12445;SDS011;6287;50.984;7.022;2023-03-19T03:04:20;2.47;;;1.80;;
12445;SDS011;6287;50.984;7.022;2023-03-19T03:06:48;2.70;;;1.70;;
12445;SDS011;6287;50.984;7.022;2023-03-19T03:09:14;2.80;;;1.70;;
12445;SDS011;6287;50.984;7.022;2023-03-19T03:11:40;3.73;;;1.80;;
12445;SDS011;6287;50.984;7.022;2023-03-19T03:14:06;3.23;;;2.17;;
12445;SDS011;6287;50.984;7.022;2023-03-19T03:16:32;3.23;;;1.80;;
12445;SDS011;6287;50.984;7.022;2023-03-19T03:18:58;1.70;;;1.60;;
12445;SDS011;6287;50.984;7.022;2023-03-19T03:21:23;2.60;;;2.03;;
12445;SDS011;6287;50.984;7.022;2023-03-19T03:23:51;1.60;;;1.50;;
12445;SDS011;6287;50.984;7.022;2023-03-19T03:26:17;2.07;;;1.87;;
12445;SDS011;6287;50.984;7.022;2023-03-19T03:28:43;4.57;;;2.00;;
12445;SDS011;6287;50.984;7.022;2023-03-19T03:31:11;1.70;;;1.60;;
12445;SDS011;6287;50.984;7.022;2023-03-19T03:33:40;2.00;;;1.70;;
12445;SDS011;6287;50.984;7.022;2023-03-19T03:36:07;1.63;;;1.53;;
12445;SDS011;6287;50.984;7.022;2023-03-19T03:38:38;1.83;;;1.73;;
12445;SDS011;6287;50.984;7.022;2023-03-19T03:41:04;1.97;;;1.87;;
12445;SDS011;6287;50.984;7.022;2023-03-19T03:43:35;2.43;;;1.73;;
12445;SDS011;6287;50.984;7.022;2023-03-19T03:46:00;2.13;;;1.70;;
12445;SDS011;6287;50.984;7.022;2023-03-19T03:48:26;2.13;;;1.93;;
12445;SDS011;6287;50.984;7.022;2023-03-19T03:50:54;2.10;;;1.73;;
12445;SDS011;6287;50.984;7.022;2023-03-19T03:53:23;1.70;;;1.60;;
12445;SDS011;6287;50.984;7.022;2023-03-19T03:55:49;3.97;;;1.90;;
12445;SDS011;6287;50.984;7.022;2023-03-19T03:58:15;2.00;;;1.80;;
12445;SDS011;6287;50.984;7.022;2023-03-19T04:00:46;3.47;;;2.00;;
12445;SDS011;6287;50.984;7.022;2023-03-19T04:03:14;2.00;;;1.60;;
12445;SDS011;6287;50.984;7.022;2023-03-19T04:05:41;2.73;;;1.87;;
12445;SDS011;6287;50.984;7.022;2023-03-19T04:08:08;2.13;;;1.70;;
12445;SDS011;6287;50.984;7.022;2023-03-19T04:10:34;3.73;;;1.70;;
12445;SDS011;6287;50.984;7.022;2023-03-19T04:13:05;2.53;;;1.37;;
12445;SDS011;6287;50.984;7.022;2023-03-19T04:15:31;3.30;;;2.03;;
12445;SDS011;6287;50.984;7.022;2023-03-19T04:17:58;3.03;;;1.70;;
12445;SDS011;6287;50.984;7.022;2023-03-19T04:20:24;3.07;;;1.80;;
12445;SDS011;6287;50.984;7.022;2023-03-19T04:22:52;1.97;;;1.70;;
12445;SDS011;6287;50.984;7.022;2023-03-19T04:25:22;3.30;;;1.40;;
12445;SDS011;6287;50.984;7.022;2023-03-19T04:27:48;2.57;;;1.73;;
12445;SDS011;6287;50.984;7.022;2023-03-19T04:30:16;3.90;;;2.17;;
12445;SDS011;6287;50.984;7.022;2023-03-19T04:32:42;2.70;;;1.53;;
12445;SDS011;6287;50.984;7.022;2023-03-19T04:35:11;1.80;;;1.27;;
12445;SDS011;6287;50.984;7.022;2023-03-19T04:37:39;2.53;;;1.40;;
12445;SDS011;6287;50.984;7.022;2023-03-19T04:40:14;3.67;;;1.70;;
12445;SDS011;6287;50.984;7.022;2023-03-19T04:42:41;2.17;;;1.60;;
12445;SDS011;6287;50.984;7.022;2023-03-19T04:45:09;2.00;;;1.23;;
12445;SDS011;6287;50.984;7.022;2023-03-19T04:47:37;5.97;;;1.37;;
12445;SDS011;6287;50.984;7.022;2023-03-19T04:50:06;3.13;;;1.10;;
12445;SDS011;6287;50.984;7.022;2023-03-19T04:52:33;1.40;;;1.30;;
12445;SDS011;6287;50.984;7.022;2023-03-19T04:55:01;2.90;;;1.40;;
12445;SDS011;6287;50.984;7.022;2023-03-19T04:57:30;1.83;;;1.70;;
12445;SDS011;6287;50.984;7.022;2023-03-19T04:59:55;1.50;;;1.40;;
12445;SDS011;6287;50.984;7.022;2023-03-19T05:02:26;1.17;;;1.07;;
12445;SDS011;6287;50.984;7.022;2023-03-19T05:04:52;1.67;;;1.40;;
12445;SDS011;6287;50.984;7.022;2023-03-19T05:07:19;2.13;;;1.63;;
12445;SDS011;6287;50.984;7.022;2023-03-19T05:09:46;1.90;;;1.40;;
12445;SDS011;6287;50.984;7.022;2023-03-19T05:12:11;1.67;;;1.50;;
12445;SDS011;6287;50.984;7.022;2023-03-19T05:14:40;2.63;;;1.70;;
12445;SDS011;6287;50.984;7.022;2023-03-19T05:17:05;1.67;;;1.30;;
12445;SDS011;6287;50.984;7.022;2023-03-19T05:19:31;2.07;;;1.53;;
12445;SDS011;6287;50.984;7.022;2023-03-19T05:21:58;3.67;;;1.83;;
12445;SDS011;6287;50.984;7.022;2023-03-19T05:24:23;2.43;;;1.60;;
12445;SDS011;6287;50.984;7.022;2023-03-19T05:26:51;1.50;;;1.40;;
12445;SDS011;6287;50.984;7.022;2023-03-19T05:29:17;2.37;;;1.53;;
12445;SDS011;6287;50.984;7.022;2023-03-19T05:31:42;4.00;;;1.60;;
12445;SDS011;6287;50.984;7.022;2023-03-19T05:34:12;2.57;;;1.60;;
12445;SDS011;6287;50.984;7.022;2023-03-19T05:36:37;1.77;;;1.60;;
12445;SDS011;6287;50.984;7.022;2023-03-19T05:39:05;1.30;;;1.20;;
12445;SDS011;6287;50.984;7.022;2023-03-19T05:41:34;2.87;;;1.83;;
12445;SDS011;6287;50.984;7.022;2023-03-19T05:44:02;1.50;;;1.40;;
12445;SDS011;6287;50.984;7.022;2023-03-19T05:46:33;1.43;;;1.30;;
12445;SDS011;6287;50.984;7.022;2023-03-19T05:49:04;3.40;;;1.40;;
12445;SDS011;6287;50.984;7.022;2023-03-19T05:51:35;2.17;;;1.50;;
12445;SDS011;6287;50.984;7.022;2023-03-19T05:54:02;3.07;;;1.50;;
12445;SDS011;6287;50.984;7.022;2023-03-19T05:56:27;1.80;;;1.47;;
12445;SDS011;6287;50.984;7.022;2023-03-19T05:58:56;1.90;;;1.20;;
12445;SDS011;6287;50.984;7.022;2023-03-19T06:01:24;1.43;;;1.33;;
12445;SDS011;6287;50.984;7.022;2023-03-19T06:03:52;1.53;;;1.20;;
12445;SDS011;6287;50.984;7.022;2023-03-19T06:06:18;1.50;;;1.40;;
12445;SDS011;6287;50.984;7.022;2023-03-19T06:08:43;1.47;;;1.37;;
12445;SDS011;6287;50.984;7.022;2023-03-19T06:11:09;1.07;;;1.00;;
12445;SDS011;6287;50.984;7.022;2023-03-19T06:13:37;1.10;;;1.10;;
12445;SDS011;6287;50.984;7.022;2023-03-19T06:16:07;2.37;;;1.10;;
12445;SDS011;6287;50.984;7.022;2023-03-19T06:18:35;1.13;;;1.03;;
12445;SDS011;6287;50.984;7.022;2023-03-19T06:21:05;1.17;;;1.10;;
12445;SDS011;6287;50.984;7.022;2023-03-19T06:23:32;3.10;;;1.07;;
12445;SDS011;6287;50.984;7.022;2023-03-19T06:26:03;1.53;;;1.07;;
12445;SDS011;6287;50.984;7.022;2023-03-19T06:28:31;2.13;;;1.00;;
12445;SDS011;6287;50.984;7.022;2023-03-19T06:30:57;1.27;;;1.17;;
12445;SDS011;6287;50.984;7.022;2023-03-19T06:33:23;1.00;;;0.90;;
12445;SDS011;6287;50.984;7.022;2023-03-19T06:35:56;1.33;;;1.00;;
12445;SDS011;6287;50.984;7.022;2023-03-19T06:38:24;2.40;;;0.87;;
12445;SDS011;6287;50.984;7.022;2023-03-19T06:40:53;1.10;;;1.00;;
12445;SDS011;6287;50.984;7.022;2023-03-19T06:43:21;1.00;;;1.00;;
12445;SDS011;6287;50.984;7.022;2023-03-19T06:45:47;1.03;;;1.00;;
12445;SDS011;6287;50.984;7.022;2023-03-19T06:48:13;1.10;;;0.97;;
12445;SDS011;6287;50.984;7.022;2023-03-19T06:50:43;1.73;;;1.10;;
12445;SDS011;6287;50.984;7.022;2023-03-19T06:53:13;1.10;;;1.00;;
12445;SDS011;6287;50.984;7.022;2023-03-19T06:55:39;1.03;;;1.00;;
12445;SDS011;6287;50.984;7.022;2023-03-19T06:58:11;0.93;;;0.87;;
12445;SDS011;6287;50.984;7.022;2023-03-19T07:00:39;2.83;;;1.00;;
12445;SDS011;6287;50.984;7.022;2023-03-19T07:03:10;1.10;;;1.10;;
12445;SDS011;6287;50.984;7.022;2023-03-19T07:05:36;1.10;;;1.10;;
12445;SDS011;6287;50.984;7.022;2023-03-19T07:08:01;1.03;;;1.00;;
12445;SDS011;6287;50.984;7.022;2023-03-19T07:10:38;2.23;;;1.13;;
12445;SDS011;6287;50.984;7.022;2023-03-19T07:13:04;1.50;;;0.93;;
12445;SDS011;6287;50.984;7.022;2023-03-19T07:15:30;0.97;;;0.97;;
12445;SDS011;6287;50.984;7.022;2023-03-19T07:18:01;1.10;;;1.00;;
12445;SDS011;6287;50.984;7.022;2023-03-19T07:20:29;1.10;;;1.00;;
12445;SDS011;6287;50.984;7.022;2023-03-19T07:22:57;0.97;;;0.93;;
12445;SDS011;6287;50.984;7.022;2023-03-19T07:25:25;0.90;;;0.90;;
12445;SDS011;6287;50.984;7.022;2023-03-19T07:27:53;1.00;;;0.90;;
12445;SDS011;6287;50.984;7.022;2023-03-19T07:30:18;0.80;;;0.80;;
12445;SDS011;6287;50.984;7.022;2023-03-19T07:32:46;1.37;;;0.80;;
12445;SDS011;6287;50.984;7.022;2023-03-19T07:35:14;1.07;;;1.00;;
12445;SDS011;6287;50.984;7.022;2023-03-19T07:37:40;1.00;;;1.00;;
12445;SDS011;6287;50.984;7.022;2023-03-19T07:40:09;0.80;;;0.80;;
12445;SDS011;6287;50.984;7.022;2023-03-19T07:42:40;1.20;;;1.00;;
12445;SDS011;6287;50.984;7.022;2023-03-19T07:45:06;1.67;;;0.93;;
12445;SDS011;6287;50.984;7.022;2023-03-19T07:47:32;1.43;;;1.30;;
12445;SDS011;6287;50.984;7.022;2023-03-19T07:49:57;1.57;;;0.97;;
12445;SDS011;6287;50.984;7.022;2023-03-19T07:52:28;1.00;;;0.90;;
12445;SDS011;6287;50.984;7.022;2023-03-19T07:54:56;1.17;;;0.93;;
12445;SDS011;6287;50.984;7.022;2023-03-19T07:57:22;0.90;;;0.90;;
12445;SDS011;6287;50.984;7.022;2023-03-19T07:59:49;1.20;;;0.90;;
12445;SDS011;6287;50.984;7.022;2023-03-19T08:02:18;1.33;;;0.97;;
12445;SDS011;6287;50.984;7.022;2023-03-19T08:04:43;0.80;;;0.80;;
12445;SDS011;6287;50.984;7.022;2023-03-19T08:07:17;1.90;;;0.97;;
12445;SDS011;6287;50.984;7.022;2023-03-19T08:09:45;0.80;;;0.80;;
12445;SDS011;6287;50.984;7.022;2023-03-19T08:12:13;0.90;;;0.90;;
12445;SDS011;6287;50.984;7.022;2023-03-19T08:14:38;2.00;;;1.20;;
12445;SDS011;6287;50.984;7.022;2023-03-19T08:17:04;1.17;;;1.07;;
12445;SDS011;6287;50.984;7.022;2023-03-19T08:19:35;1.20;;;1.10;;
12445;SDS011;6287;50.984;7.022;2023-03-19T08:22:03;1.37;;;1.27;;
12445;SDS011;6287;50.984;7.022;2023-03-19T08:24:31;1.57;;;0.97;;
12445;SDS011;6287;50.984;7.022;2023-03-19T08:26:57;1.87;;;1.30;;
12445;SDS011;6287;50.984;7.022;2023-03-19T08:29:22;1.23;;;1.13;;
12445;SDS011;6287;50.984;7.022;2023-03-19T08:31:51;0.90;;;0.90;;
12445;SDS011;6287;50.984;7.022;2023-03-19T08:34:22;0.90;;;0.90;;
12445;SDS011;6287;50.984;7.022;2023-03-19T08:36:48;1.30;;;1.20;;
12445;SDS011;6287;50.984;7.022;2023-03-19T08:39:16;5.17;;;1.10;;
12445;SDS011;6287;50.984;7.022;2023-03-19T08:41:42;1.17;;;1.17;;
12445;SDS011;6287;50.984;7.022;2023-03-19T08:44:09;1.80;;;1.00;;
12445;SDS011;6287;50.984;7.022;2023-03-19T08:46:35;2.73;;;1.37;;
12445;SDS011;6287;50.984;7.022;2023-03-19T08:49:06;1.50;;;1.27;;
12445;SDS011;6287;50.984;7.022;2023-03-19T08:51:32;1.30;;;1.30;;
12445;SDS011;6287;50.984;7.022;2023-03-19T08:53:57;1.37;;;1.20;;
12445;SDS011;6287;50.984;7.022;2023-03-19T08:56:23;2.83;;;1.30;;
12445;SDS011;6287;50.984;7.022;2023-03-19T08:58:51;1.10;;;1.10;;
12445;SDS011;6287;50.984;7.022;2023-03-19T09:01:19;1.30;;;1.30;;
12445;SDS011;6287;50.984;7.022;2023-03-19T09:03:47;1.43;;;1.23;;
12445;SDS011;6287;50.984;7.022;2023-03-19T09:06:18;1.53;;;1.43;;
12445;SDS011;6287;50.984;7.022;2023-03-19T09:08:43;1.37;;;1.27;;
12445;SDS011;6287;50.984;7.022;2023-03-19T09:11:11;1.43;;;1.33;;
12445;SDS011;6287;50.984;7.022;2023-03-19T09:13:40;1.23;;;1.13;;
12445;SDS011;6287;50.984;7.022;2023-03-19T09:16:06;1.50;;;1.40;;
12445;SDS011;6287;50.984;7.022;2023-03-19T09:18:32;2.97;;;1.50;;
12445;SDS011;6287;50.984;7.022;2023-03-19T09:20:58;1.47;;;1.33;;
12445;SDS011;6287;50.984;7.022;2023-03-19T09:23:28;1.43;;;1.33;;
12445;SDS011;6287;50.984;7.022;2023-03-19T09:25:56;1.70;;;1.40;;
12445;SDS011;6287;50.984;7.022;2023-03-19T09:28:22;1.60;;;1.50;;
12445;SDS011;6287;50.984;7.022;2023-03-19T09:30:50;1.50;;;1.40;;
12445;SDS011;6287;50.984;7.022;2023-03-19T09:33:18;2.57;;;1.50;;
12445;SDS011;6287;50.984;7.022;2023-03-19T09:35:49;1.50;;;1.40;;
12445;SDS011;6287;50.984;7.022;2023-03-19T09:38:16;1.50;;;1.40;;
12445;SDS011;6287;50.984;7.022;2023-03-19T09:40:46;1.63;;;1.40;;
12445;SDS011;6287;50.984;7.022;2023-03-19T09:43:33;2.13;;;1.40;;
12445;SDS011;6287;50.984;7.022;2023-03-19T09:46:03;1.83;;;1.73;;
12445;SDS011;6287;50.984;7.022;2023-03-19T09:51:09;1.60;;;1.50;;
12445;SDS011;6287;50.984;7.022;2023-03-19T09:53:44;1.87;;;1.77;;
12445;SDS011;6287;50.984;7.022;2023-03-19T09:56:17;2.27;;;1.50;;
12445;SDS011;6287;50.984;7.022;2023-03-19T09:58:45;1.60;;;1.50;;
12445;SDS011;6287;50.984;7.022;2023-03-19T10:01:21;1.60;;;1.50;;
12445;SDS011;6287;50.984;7.022;2023-03-19T10:04:16;1.57;;;1.47;;
12445;SDS011;6287;50.984;7.022;2023-03-19T10:07:46;1.40;;;1.30;;
12445;SDS011;6287;50.984;7.022;2023-03-19T10:10:28;1.60;;;1.50;;
12445;SDS011;6287;50.984;7.022;2023-03-19T10:13:21;1.30;;;1.20;;
12445;SDS011;6287;50.984;7.022;2023-03-19T10:16:23;2.50;;;1.50;;
12445;SDS011;6287;50.984;7.022;2023-03-19T10:18:54;1.40;;;1.30;;
12445;SDS011;6287;50.984;7.022;2023-03-19T10:21:41;1.50;;;1.40;;
12445;SDS011;6287;50.984;7.022;2023-03-19T10:24:22;2.10;;;1.20;;
12445;SDS011;6287;50.984;7.022;2023-03-19T10:27:10;1.77;;;1.50;;
12445;SDS011;6287;50.984;7.022;2023-03-19T10:29:41;4.90;;;1.40;;
12445;SDS011;6287;50.984;7.022;2023-03-19T10:32:20;1.47;;;1.37;;
12445;SDS011;6287;50.984;7.022;2023-03-19T10:34:58;1.43;;;1.20;;
12445;SDS011;6287;50.984;7.022;2023-03-19T10:37:32;1.80;;;1.30;;
12445;SDS011;6287;50.984;7.022;2023-03-19T10:39:59;1.10;;;1.10;;
12445;SDS011;6287;50.984;7.022;2023-03-19T10:47:56;1.60;;;1.20;;
12445;SDS011;6287;50.984;7.022;2023-03-19T10:55:43;2.30;;;1.73;;
12445;SDS011;6287;50.984;7.022;2023-03-19T10:58:26;1.67;;;1.37;;
12445;SDS011;6287;50.984;7.022;2023-03-19T11:01:05;1.50;;;1.40;;
12445;SDS011;6287;50.984;7.022;2023-03-19T11:08:51;1.80;;;1.10;;
12445;SDS011;6287;50.984;7.022;2023-03-19T11:11:31;1.60;;;1.50;;
12445;SDS011;6287;50.984;7.022;2023-03-19T11:13:57;1.70;;;1.60;;
12445;SDS011;6287;50.984;7.022;2023-03-19T11:16:29;1.50;;;1.40;;
12445;SDS011;6287;50.984;7.022;2023-03-19T11:19:16;1.73;;;1.43;;
12445;SDS011;6287;50.984;7.022;2023-03-19T11:24:26;1.67;;;1.57;;
12445;SDS011;6287;50.984;7.022;2023-03-19T11:26:56;1.30;;;1.20;;
12445;SDS011;6287;50.984;7.022;2023-03-19T11:29:22;1.50;;;1.40;;
12445;SDS011;6287;50.984;7.022;2023-03-19T11:47:58;1.40;;;1.30;;
12445;SDS011;6287;50.984;7.022;2023-03-19T11:53:33;1.33;;;1.23;;
12445;SDS011;6287;50.984;7.022;2023-03-19T12:01:24;1.17;;;1.10;;
12445;SDS011;6287;50.984;7.022;2023-03-19T12:04:15;1.48;;;1.27;;
12445;SDS011;6287;50.984;7.022;2023-03-19T12:12:37;1.33;;;1.20;;
12445;SDS011;6287;50.984;7.022;2023-03-19T12:34:21;2.72;;;1.10;;
12445;SDS011;6287;50.984;7.022;2023-03-19T12:39:57;1.42;;;1.33;;
12445;SDS011;6287;50.984;7.022;2023-03-19T12:42:42;1.27;;;1.10;;
12445;SDS011;6287;50.984;7.022;2023-03-19T12:45:15;0.82;;;0.82;;
12445;SDS011;6287;50.984;7.022;2023-03-19T12:48:06;1.75;;;1.10;;
12445;SDS011;6287;50.984;7.022;2023-03-19T12:50:39;0.93;;;0.93;;
12445;SDS011;6287;50.984;7.022;2023-03-19T12:53:15;0.93;;;0.93;;
12445;SDS011;6287;50.984;7.022;2023-03-19T12:56:16;1.08;;;0.85;;
12445;SDS011;6287;50.984;7.022;2023-03-19T13:01:58;0.73;;;0.73;;
12445;SDS011;6287;50.984;7.022;2023-03-19T13:04:37;1.50;;;0.85;;
12445;SDS011;6287;50.984;7.022;2023-03-19T13:07:10;1.95;;;0.90;;
12445;SDS011;6287;50.984;7.022;2023-03-19T13:12:21;0.98;;;0.95;;
12445;SDS011;6287;50.984;7.022;2023-03-19T13:14:55;0.70;;;0.70;;
12445;SDS011;6287;50.984;7.022;2023-03-19T13:19:52;0.80;;;0.80;;
12445;SDS011;6287;50.984;7.022;2023-03-19T13:22:27;0.70;;;0.70;;
12445;SDS011;6287;50.984;7.022;2023-03-19T13:24:56;0.90;;;0.90;;
12445;SDS011;6287;50.984;7.022;2023-03-19T13:27:31;0.75;;;0.75;;
12445;SDS011;6287;50.984;7.022;2023-03-19T13:38:05;0.90;;;0.88;;
12445;SDS011;6287;50.984;7.022;2023-03-19T13:40:42;0.70;;;0.70;;
12445;SDS011;6287;50.984;7.022;2023-03-19T13:48:36;0.80;;;0.80;;
12445;SDS011;6287;50.984;7.022;2023-03-19T13:53:43;0.60;;;0.60;;
12445;SDS011;6287;50.984;7.022;2023-03-19T13:59:25;0.77;;;0.77;;
12445;SDS011;6287;50.984;7.022;2023-03-19T14:01:53;0.70;;;0.70;;
12445;SDS011;6287;50.984;7.022;2023-03-19T14:04:24;1.05;;;1.05;;
12445;SDS011;6287;50.984;7.022;2023-03-19T14:09:31;0.60;;;0.60;;
12445;SDS011;6287;50.984;7.022;2023-03-19T14:12:08;0.73;;;0.73;;
12445;SDS011;6287;50.984;7.022;2023-03-19T14:14:39;0.80;;;0.80;;
12445;SDS011;6287;50.984;7.022;2023-03-19T14:17:18;1.08;;;0.70;;
12445;SDS011;6287;50.984;7.022;2023-03-19T14:19:48;0.70;;;0.70;;
12445;SDS011;6287;50.984;7.022;2023-03-19T14:22:31;0.88;;;0.85;;
12445;SDS011;6287;50.984;7.022;2023-03-19T14:25:17;0.75;;;0.75;;
12445;SDS011;6287;50.984;7.022;2023-03-19T14:27:48;2.00;;;1.13;;
12445;SDS011;6287;50.984;7.022;2023-03-19T14:30:57;1.00;;;1.00;;
12445;SDS011;6287;50.984;7.022;2023-03-19T14:33:14;0.88;;;0.80;;
12445;SDS011;6287;50.984;7.022;2023-03-19T14:36:01;0.75;;;0.70;;
12445;SDS011;6287;50.984;7.022;2023-03-19T14:38:34;0.80;;;0.80;;
12445;SDS011;6287;50.984;7.022;2023-03-19T14:41:04;0.95;;;0.95;;
12445;SDS011;6287;50.984;7.022;2023-03-19T14:46:28;0.60;;;0.60;;
12445;SDS011;6287;50.984;7.022;2023-03-19T14:56:57;0.60;;;0.50;;
12445;SDS011;6287;50.984;7.022;2023-03-19T14:59:35;0.70;;;0.50;;
12445;SDS011;6287;50.984;7.022;2023-03-19T15:02:04;0.50;;;0.50;;
12445;SDS011;6287;50.984;7.022;2023-03-19T15:04:43;0.60;;;0.60;;
12445;SDS011;6287;50.984;7.022;2023-03-19T15:07:15;2.07;;;1.07;;
12445;SDS011;6287;50.984;7.022;2023-03-19T15:09:51;1.10;;;1.10;;
12445;SDS011;6287;50.984;7.022;2023-03-19T15:18:11;3.87;;;2.17;;
12445;SDS011;6287;50.984;7.022;2023-03-19T15:20:45;2.47;;;1.97;;
12445;SDS011;6287;50.984;7.022;2023-03-19T15:23:18;2.97;;;2.17;;
12445;SDS011;6287;50.984;7.022;2023-03-19T15:25:48;2.17;;;1.80;;
12445;SDS011;6287;50.984;7.022;2023-03-19T15:28:21;2.23;;;2.03;;
12445;SDS011;6287;50.984;7.022;2023-03-19T15:30:58;2.43;;;2.10;;
12445;SDS011;6287;50.984;7.022;2023-03-19T15:33:33;2.17;;;1.80;;
12445;SDS011;6287;50.984;7.022;2023-03-19T15:38:45;2.27;;;1.90;;
12445;SDS011;6287;50.984;7.022;2023-03-19T15:41:17;2.13;;;2.03;;
12445;SDS011;6287;50.984;7.022;2023-03-19T15:43:43;2.63;;;2.20;;
12445;SDS011;6287;50.984;7.022;2023-03-19T15:46:15;2.00;;;1.90;;
12445;SDS011;6287;50.984;7.022;2023-03-19T15:49:04;2.30;;;2.13;;
12445;SDS011;6287;50.984;7.022;2023-03-19T15:51:35;2.70;;;2.50;;
12445;SDS011;6287;50.984;7.022;2023-03-19T15:54:02;2.70;;;2.50;;
12445;SDS011;6287;50.984;7.022;2023-03-19T15:56:29;2.70;;;2.50;;
12445;SDS011;6287;50.984;7.022;2023-03-19T15:58:56;2.60;;;2.33;;
12445;SDS011;6287;50.984;7.022;2023-03-19T16:01:25;4.43;;;2.17;;
12445;SDS011;6287;50.984;7.022;2023-03-19T16:06:27;2.23;;;2.07;;
12445;SDS011;6287;50.984;7.022;2023-03-19T16:09:12;2.67;;;2.47;;
12445;SDS011;6287;50.984;7.022;2023-03-19T16:11:55;3.70;;;2.33;;
12445;SDS011;6287;50.984;7.022;2023-03-19T16:16:48;2.60;;;2.27;;
12445;SDS011;6287;50.984;7.022;2023-03-19T16:19:35;2.70;;;2.50;;
12445;SDS011;6287;50.984;7.022;2023-03-19T16:22:13;2.80;;;2.60;;
12445;SDS011;6287;50.984;7.022;2023-03-19T16:24:45;2.77;;;2.57;;
12445;SDS011;6287;50.984;7.022;2023-03-19T16:27:13;3.93;;;3.20;;
12445;SDS011;6287;50.984;7.022;2023-03-19T16:29:47;2.80;;;2.60;;
12445;SDS011;6287;50.984;7.022;2023-03-19T16:32:20;3.03;;;2.60;;
12445;SDS011;6287;50.984;7.022;2023-03-19T16:35:01;3.30;;;3.00;;
12445;SDS011;6287;50.984;7.022;2023-03-19T16:37:46;2.73;;;2.53;;
12445;SDS011;6287;50.984;7.022;2023-03-19T16:47:39;3.70;;;3.40;;
12445;SDS011;6287;50.984;7.022;2023-03-19T16:50:05;5.30;;;3.33;;
12445;SDS011;6287;50.984;7.022;2023-03-19T16:52:31;5.10;;;3.83;;
12445;SDS011;6287;50.984;7.022;2023-03-19T16:54:58;3.93;;;3.53;;
12445;SDS011;6287;50.984;7.022;2023-03-19T16:57:28;4.63;;;4.10;;
12445;SDS011;6287;50.984;7.022;2023-03-19T16:59:58;4.53;;;3.37;;
12445;SDS011;6287;50.984;7.022;2023-03-19T17:02:28;3.63;;;3.17;;
12445;SDS011;6287;50.984;7.022;2023-03-19T17:04:56;5.47;;;3.00;;
12445;SDS011;6287;50.984;7.022;2023-03-19T17:07:22;4.70;;;3.43;;
12445;SDS011;6287;50.984;7.022;2023-03-19T17:09:50;4.30;;;3.40;;
12445;SDS011;6287;50.984;7.022;2023-03-19T17:12:18;3.43;;;3.13;;
12445;SDS011;6287;50.984;7.022;2023-03-19T17:14:46;3.80;;;3.03;;
12445;SDS011;6287;50.984;7.022;2023-03-19T17:17:18;3.60;;;3.17;;
12445;SDS011;6287;50.984;7.022;2023-03-19T17:19:49;3.20;;;2.90;;
12445;SDS011;6287;50.984;7.022;2023-03-19T17:22:16;4.43;;;3.20;;
12445;SDS011;6287;50.984;7.022;2023-03-19T17:24:42;3.40;;;3.10;;
12445;SDS011;6287;50.984;7.022;2023-03-19T17:27:08;4.93;;;3.83;;
12445;SDS011;6287;50.984;7.022;2023-03-19T17:29:34;3.57;;;3.27;;
12445;SDS011;6287;50.984;7.022;2023-03-19T17:32:00;3.60;;;3.30;;
12445;SDS011;6287;50.984;7.022;2023-03-19T17:34:28;4.93;;;3.10;;
12445;SDS011;6287;50.984;7.022;2023-03-19T17:36:57;5.33;;;3.90;;
12445;SDS011;6287;50.984;7.022;2023-03-19T17:39:29;4.13;;;3.30;;